createdAt,value
2017-07-02T00:00:24.837Z,99.99
2017-07-02T00:01:25.413Z,99.99
2017-07-02T00:02:25.990Z,99.99
2017-07-02T00:03:26.566Z,99.99
2017-07-02T00:04:27.142Z,99.99
2017-07-02T00:05:27.720Z,99.99
2017-07-02T00:06:28.301Z,99.99
2017-07-02T00:07:28.890Z,99.99
2017-07-02T00:08:29.468Z,99.99
2017-07-02T00:09:30.061Z,99.99
2017-07-02T00:10:30.645Z,99.99
2017-07-02T00:11:31.219Z,99.99
2017-07-02T00:12:31.796Z,99.99
2017-07-02T00:13:32.373Z,99.99
2017-07-02T00:14:32.966Z,99.99
2017-07-02T00:15:33.559Z,99.99
2017-07-02T00:16:34.137Z,99.99
2017-07-02T00:17:34.716Z,99.99
2017-07-02T00:18:35.295Z,99.99
2017-07-02T00:19:35.873Z,99.99
2017-07-02T00:20:36.450Z,99.99
2017-07-02T00:21:37.026Z,99.99
2017-07-02T00:22:37.604Z,99.99
2017-07-02T00:23:38.183Z,99.99
2017-07-02T00:24:38.761Z,99.99
2017-07-02T00:25:39.339Z,99.99
2017-07-02T00:26:39.916Z,99.99
2017-07-02T00:27:40.491Z,99.99
2017-07-02T00:28:41.068Z,99.99
2017-07-02T00:29:41.645Z,99.99
2017-07-02T00:30:42.223Z,99.99
2017-07-02T00:31:42.804Z,99.99
2017-07-02T00:32:43.379Z,99.99
2017-07-02T00:33:43.957Z,99.99
2017-07-02T00:34:44.535Z,99.99
2017-07-02T00:35:45.111Z,99.99
2017-07-02T00:36:45.690Z,99.99
2017-07-02T00:37:46.268Z,99.99
2017-07-02T00:38:46.862Z,99.99
2017-07-02T00:39:47.459Z,99.99
2017-07-02T00:40:48.048Z,99.99
2017-07-02T00:41:48.627Z,99.99
2017-07-02T00:42:49.220Z,99.99
2017-07-02T00:43:49.798Z,99.99
2017-07-02T00:44:50.378Z,99.99
2017-07-02T00:45:50.954Z,99.99
2017-07-02T00:46:51.531Z,99.99
2017-07-02T00:47:52.109Z,99.99
2017-07-02T00:48:52.687Z,99.99
2017-07-02T00:49:53.265Z,99.99
2017-07-02T00:50:53.851Z,99.99
2017-07-02T00:51:54.420Z,99.99
2017-07-02T00:52:54.998Z,99.99
2017-07-02T00:53:55.575Z,99.99
2017-07-02T00:54:56.155Z,99.99
2017-07-02T00:55:56.749Z,99.99
2017-07-02T00:56:57.326Z,99.99
2017-07-02T00:57:57.905Z,99.99
2017-07-02T00:58:58.482Z,99.99
2017-07-02T00:59:59.058Z,99.99
2017-07-02T01:00:59.634Z,99.99
2017-07-02T01:02:00.213Z,99.99
2017-07-02T01:03:00.802Z,99.99
2017-07-02T01:04:01.381Z,99.99
2017-07-02T01:05:01.958Z,99.99
2017-07-02T01:06:02.539Z,99.99
2017-07-02T01:07:03.114Z,99.99
2017-07-02T01:08:03.707Z,99.99
2017-07-02T01:09:04.285Z,99.99
2017-07-02T01:10:04.862Z,99.99
2017-07-02T01:11:05.439Z,99.99
2017-07-02T01:12:06.018Z,99.99
2017-07-02T01:13:06.597Z,99.99
2017-07-02T01:14:07.178Z,99.99
2017-07-02T01:15:07.770Z,99.99
2017-07-02T01:16:08.347Z,99.99
2017-07-02T01:17:08.928Z,99.99
2017-07-02T01:18:09.504Z,99.99
2017-07-02T01:19:10.081Z,99.99
2017-07-02T01:20:10.660Z,99.99
2017-07-02T01:21:11.236Z,99.99
2017-07-02T01:22:11.815Z,99.99
2017-07-02T01:23:12.408Z,99.99
2017-07-02T01:24:12.985Z,99.99
2017-07-02T01:25:13.562Z,99.99
2017-07-02T01:26:14.139Z,99.99
2017-07-02T01:27:14.718Z,99.99
2017-07-02T01:28:15.297Z,99.99
2017-07-02T01:29:15.874Z,99.99
2017-07-02T01:30:16.451Z,99.99
2017-07-02T01:31:17.043Z,99.99
2017-07-02T01:32:17.621Z,99.99
2017-07-02T01:33:18.198Z,99.99
2017-07-02T01:34:18.790Z,99.99
2017-07-02T01:35:19.368Z,99.99
2017-07-02T01:36:19.961Z,99.99
2017-07-02T01:37:20.553Z,99.99
2017-07-02T01:38:21.130Z,99.99
2017-07-02T01:39:21.708Z,99.99
2017-07-02T01:40:22.286Z,99.99
2017-07-02T01:41:22.867Z,99.99
2017-07-02T01:42:23.460Z,99.99
2017-07-02T01:43:24.053Z,99.99
2017-07-02T01:44:24.630Z,99.99
2017-07-02T01:45:25.209Z,99.99
2017-07-02T01:46:25.787Z,99.99
2017-07-02T01:47:26.379Z,99.99
2017-07-02T01:48:26.955Z,99.99
2017-07-02T01:49:27.531Z,99.99
2017-07-02T01:50:28.110Z,99.99
2017-07-02T01:51:28.688Z,99.99
2017-07-02T01:52:29.264Z,99.99
2017-07-02T01:53:29.842Z,99.99
2017-07-02T01:54:30.420Z,99.99
2017-07-02T01:55:31.017Z,99.99
2017-07-02T01:56:31.588Z,99.99
2017-07-02T01:57:32.165Z,99.99
2017-07-02T01:58:32.743Z,99.99
2017-07-02T01:59:33.322Z,99.99
2017-07-02T02:00:33.898Z,99.99
2017-07-02T02:01:34.475Z,99.99
2017-07-02T02:02:35.051Z,99.99
2017-07-02T02:03:35.628Z,99.99
2017-07-02T02:04:36.206Z,99.99
2017-07-02T02:05:36.784Z,99.99
2017-07-02T02:06:37.363Z,99.99
2017-07-02T02:07:37.940Z,99.99
2017-07-02T02:08:38.516Z,99.99
2017-07-02T02:09:39.092Z,99.99
2017-07-02T02:10:39.669Z,99.99
2017-07-02T02:11:40.247Z,99.99
2017-07-02T02:12:40.824Z,99.99
2017-07-02T02:13:41.402Z,99.99
2017-07-02T02:14:41.978Z,99.99
2017-07-02T02:15:42.554Z,99.99
2017-07-02T02:16:43.134Z,99.99
2017-07-02T02:17:43.712Z,99.99
2017-07-02T02:18:44.290Z,99.99
2017-07-02T02:19:44.868Z,99.99
2017-07-02T02:20:45.444Z,99.99
2017-07-02T02:21:46.023Z,99.99
2017-07-02T02:22:46.601Z,99.99
2017-07-02T02:23:47.179Z,99.99
2017-07-02T02:24:47.754Z,99.99
2017-07-02T02:25:48.330Z,99.99
2017-07-02T02:26:48.907Z,99.99
2017-07-02T02:27:49.484Z,99.99
2017-07-02T02:28:50.063Z,99.99
2017-07-02T02:29:50.640Z,99.99
2017-07-02T02:30:51.219Z,99.99
2017-07-02T02:31:51.795Z,99.99
2017-07-02T02:32:52.373Z,99.99
2017-07-02T02:33:52.951Z,99.99
2017-07-02T02:34:53.529Z,99.99
2017-07-02T02:35:54.106Z,99.99
2017-07-02T02:36:54.682Z,99.99
2017-07-02T02:37:55.258Z,99.99
2017-07-02T02:38:55.836Z,99.99
2017-07-02T02:39:56.414Z,99.99
2017-07-02T02:40:56.993Z,99.99
2017-07-02T02:41:57.570Z,99.99
2017-07-02T02:42:58.147Z,99.99
2017-07-02T02:43:58.726Z,99.99
2017-07-02T02:44:59.319Z,99.99
2017-07-02T02:45:59.896Z,99.99
2017-07-02T02:47:00.475Z,99.99
2017-07-02T02:48:01.051Z,99.99
2017-07-02T02:49:01.629Z,99.99
2017-07-02T02:50:02.207Z,99.99
2017-07-02T02:51:02.785Z,99.99
2017-07-02T02:52:03.364Z,99.99
2017-07-02T02:53:03.940Z,99.99
2017-07-02T02:54:04.517Z,99.99
2017-07-02T02:55:05.111Z,99.99
2017-07-02T02:56:05.688Z,99.99
2017-07-02T02:57:06.265Z,99.99
2017-07-02T02:58:06.857Z,99.99
2017-07-02T02:59:07.433Z,99.99
2017-07-02T03:00:08.010Z,99.99
2017-07-02T03:01:08.588Z,99.99
2017-07-02T03:02:09.166Z,99.99
2017-07-02T03:03:09.743Z,99.99
2017-07-02T03:04:10.319Z,99.99
2017-07-02T03:05:10.895Z,99.99
2017-07-02T03:06:11.474Z,99.99
2017-07-02T03:07:12.051Z,99.99
2017-07-02T03:08:12.631Z,99.99
2017-07-02T03:09:13.207Z,99.99
2017-07-02T03:10:13.784Z,99.99
2017-07-02T03:11:14.365Z,99.99
2017-07-02T03:12:14.941Z,99.99
2017-07-02T03:13:15.518Z,99.99
2017-07-02T03:14:16.097Z,99.99
2017-07-02T03:15:16.672Z,99.99
2017-07-02T03:16:17.247Z,99.99
2017-07-02T03:17:17.825Z,99.99
2017-07-02T03:18:18.403Z,99.99
2017-07-02T03:19:18.981Z,99.99
2017-07-02T03:20:19.559Z,99.99
2017-07-02T03:21:20.137Z,99.99
2017-07-02T03:22:20.716Z,99.99
2017-07-02T03:23:21.295Z,99.99
2017-07-02T03:24:21.874Z,99.99
2017-07-02T03:25:22.452Z,99.99
2017-07-02T03:26:23.032Z,99.99
2017-07-02T03:27:23.610Z,99.99
2017-07-02T03:28:24.189Z,99.99
2017-07-02T03:29:24.767Z,99.99
2017-07-02T03:30:25.345Z,99.99
2017-07-02T03:31:25.925Z,99.99
2017-07-02T03:32:26.503Z,99.99
2017-07-02T03:33:27.081Z,99.99
2017-07-02T03:34:27.660Z,99.99
2017-07-02T03:35:28.242Z,99.99
2017-07-02T03:36:28.818Z,99.99
2017-07-02T03:37:29.395Z,99.99
2017-07-02T03:38:29.974Z,99.99
2017-07-02T03:39:30.554Z,99.99
2017-07-02T03:40:31.132Z,99.99
2017-07-02T03:41:31.712Z,99.99
2017-07-02T03:42:32.288Z,99.99
2017-07-02T03:43:32.867Z,99.99
2017-07-02T03:44:33.447Z,99.99
2017-07-02T03:45:34.043Z,99.99
2017-07-02T03:46:34.620Z,99.99
2017-07-02T03:47:35.199Z,99.99
2017-07-02T03:48:35.778Z,99.99
2017-07-02T03:49:36.356Z,99.99
2017-07-02T03:50:36.934Z,99.99
2017-07-02T03:51:37.512Z,99.99
2017-07-02T03:52:38.090Z,99.99
2017-07-02T03:53:38.670Z,99.99
2017-07-02T03:54:39.264Z,99.99
2017-07-02T03:55:39.842Z,99.99
2017-07-02T03:56:40.420Z,99.99
2017-07-02T03:57:40.998Z,99.99
2017-07-02T03:58:41.577Z,99.99
2017-07-02T03:59:42.157Z,99.99
2017-07-02T04:00:42.734Z,99.99
2017-07-02T04:01:43.312Z,99.99
2017-07-02T04:02:43.893Z,99.99
2017-07-02T04:03:44.472Z,99.99
2017-07-02T04:04:45.050Z,99.99
2017-07-02T04:05:45.629Z,99.99
2017-07-02T04:06:46.208Z,99.99
2017-07-02T04:07:46.789Z,99.99
2017-07-02T04:08:47.367Z,99.99
2017-07-02T04:09:47.946Z,99.99
2017-07-02T04:10:48.526Z,99.99
2017-07-02T04:11:49.103Z,99.99
2017-07-02T04:12:49.697Z,99.99
2017-07-02T04:13:50.276Z,99.99
2017-07-02T04:14:50.855Z,99.99
2017-07-02T04:15:51.430Z,99.99
2017-07-02T04:16:52.012Z,99.99
2017-07-02T04:17:52.586Z,99.99
2017-07-02T04:18:53.164Z,99.99
2017-07-02T04:19:53.743Z,99.99
2017-07-02T04:20:54.321Z,99.99
2017-07-02T04:21:54.900Z,99.99
2017-07-02T04:22:55.476Z,99.99
2017-07-02T04:23:56.055Z,99.99
2017-07-02T04:24:56.633Z,99.99
2017-07-02T04:25:57.212Z,99.99
2017-07-02T04:26:57.804Z,99.99
2017-07-02T04:27:58.384Z,99.99
2017-07-02T04:28:58.961Z,99.99
2017-07-02T04:29:59.539Z,99.99
2017-07-02T04:31:00.135Z,99.99
2017-07-02T04:32:00.709Z,99.99
2017-07-02T04:33:01.289Z,99.99
2017-07-02T04:34:01.871Z,99.99
2017-07-02T04:35:02.449Z,99.99
2017-07-02T04:36:03.029Z,99.99
2017-07-02T04:37:03.609Z,99.99
2017-07-02T04:38:04.188Z,99.99
2017-07-02T04:39:04.770Z,99.99
2017-07-02T04:40:05.361Z,99.99
2017-07-02T04:41:05.939Z,99.99
2017-07-02T04:42:06.519Z,99.99
2017-07-02T04:43:07.099Z,99.99
2017-07-02T04:44:07.695Z,99.99
2017-07-02T04:45:08.274Z,99.99
2017-07-02T04:46:08.852Z,99.99
2017-07-02T04:47:09.433Z,99.99
2017-07-02T04:48:10.012Z,99.99
2017-07-02T04:49:10.591Z,99.99
2017-07-02T04:50:11.173Z,99.99
2017-07-02T04:51:11.751Z,99.99
2017-07-02T04:52:12.331Z,99.99
2017-07-02T04:53:12.910Z,99.99
2017-07-02T04:54:13.491Z,99.99
2017-07-02T04:55:14.084Z,99.99
2017-07-02T04:56:14.665Z,99.99
2017-07-02T04:57:15.261Z,99.99
2017-07-02T04:58:15.839Z,99.99
2017-07-02T04:59:16.419Z,99.99
2017-07-02T05:00:17.000Z,99.99
2017-07-02T05:01:17.579Z,99.99
2017-07-02T05:02:18.158Z,99.99
2017-07-02T05:03:18.740Z,99.99
2017-07-02T05:04:19.320Z,99.99
2017-07-02T05:05:19.897Z,99.99
2017-07-02T05:06:20.478Z,99.99
2017-07-02T05:07:21.057Z,99.99
2017-07-02T05:08:21.636Z,99.99
2017-07-02T05:09:22.215Z,99.99
2017-07-02T05:10:22.794Z,99.99
2017-07-02T05:11:23.374Z,99.99
2017-07-02T05:12:23.952Z,99.99
2017-07-02T05:13:24.531Z,99.99
2017-07-02T05:14:25.122Z,99.99
2017-07-02T05:15:25.702Z,99.99
2017-07-02T05:16:26.282Z,99.99
2017-07-02T05:17:26.862Z,99.99
2017-07-02T05:18:27.440Z,99.99
2017-07-02T05:19:28.020Z,99.99
2017-07-02T05:20:28.601Z,99.99
2017-07-02T05:21:29.179Z,99.99
2017-07-02T05:22:29.759Z,99.99
2017-07-02T05:23:30.341Z,99.99
2017-07-02T05:24:30.920Z,99.99
2017-07-02T05:25:31.499Z,99.99
2017-07-02T05:26:32.079Z,99.99
2017-07-02T05:27:32.660Z,99.99
2017-07-02T05:28:33.256Z,99.99
2017-07-02T05:29:33.852Z,99.99
2017-07-02T05:30:34.449Z,99.99
2017-07-02T05:31:35.029Z,99.99
2017-07-02T05:32:35.611Z,99.99
2017-07-02T05:33:36.192Z,99.99
2017-07-02T05:34:36.771Z,99.99
2017-07-02T05:35:37.353Z,99.99
2017-07-02T05:36:37.932Z,99.99
2017-07-02T05:37:38.513Z,99.99
2017-07-02T05:38:39.095Z,99.99
2017-07-02T05:39:39.674Z,99.99
2017-07-02T05:40:40.254Z,99.99
2017-07-02T05:41:40.836Z,99.99
2017-07-02T05:42:41.416Z,99.99
2017-07-02T05:43:41.996Z,99.99
2017-07-02T05:44:42.592Z,99.99
2017-07-02T05:45:43.174Z,99.99
2017-07-02T05:46:43.753Z,99.99
2017-07-02T05:47:44.335Z,99.99
2017-07-02T05:48:44.917Z,99.99
2017-07-02T05:49:45.497Z,99.99
2017-07-02T05:50:46.077Z,99.99
2017-07-02T05:51:46.659Z,99.99
2017-07-02T05:52:47.239Z,99.99
2017-07-02T05:53:47.821Z,99.99
2017-07-02T05:54:48.402Z,99.99
2017-07-02T05:55:48.983Z,99.99
2017-07-02T05:56:49.563Z,99.99
2017-07-02T05:57:50.145Z,99.99
2017-07-02T05:58:50.725Z,99.99
2017-07-02T05:59:51.309Z,99.99
2017-07-02T06:00:51.887Z,99.99
2017-07-02T06:01:52.467Z,99.99
2017-07-02T06:02:53.047Z,99.99
2017-07-02T06:03:53.629Z,99.99
2017-07-02T06:04:54.209Z,99.99
2017-07-02T06:05:54.789Z,99.99
2017-07-02T06:06:55.370Z,99.99
2017-07-02T06:07:55.949Z,99.99
2017-07-02T06:08:56.529Z,99.99
2017-07-02T06:09:57.108Z,99.99
2017-07-02T06:10:57.689Z,99.99
2017-07-02T06:11:58.269Z,99.99
2017-07-02T06:12:58.846Z,99.99
2017-07-02T06:13:59.427Z,99.99
2017-07-02T06:15:00.023Z,99.99
2017-07-02T06:16:00.607Z,99.99
2017-07-02T06:17:01.185Z,99.99
2017-07-02T06:18:01.765Z,99.99
2017-07-02T06:19:02.347Z,99.99
2017-07-02T06:20:02.927Z,99.99
2017-07-02T06:21:03.506Z,99.99
2017-07-02T06:22:04.089Z,99.99
2017-07-02T06:23:04.669Z,99.99
2017-07-02T06:24:05.248Z,99.99
2017-07-02T06:25:05.831Z,99.99
2017-07-02T06:26:06.412Z,99.99
2017-07-02T06:27:06.991Z,99.99
2017-07-02T06:28:07.574Z,99.99
2017-07-02T06:29:08.155Z,99.99
2017-07-02T06:30:08.737Z,99.99
2017-07-02T06:31:09.317Z,99.99
2017-07-02T06:32:09.897Z,99.99
2017-07-02T06:33:10.477Z,99.99
2017-07-02T06:34:11.059Z,99.99
2017-07-02T06:35:11.640Z,99.99
2017-07-02T06:36:12.220Z,99.99
2017-07-02T06:37:12.803Z,99.99
2017-07-02T06:38:13.383Z,99.99
2017-07-02T06:39:13.964Z,99.99
2017-07-02T06:40:14.547Z,99.99
2017-07-02T06:41:15.127Z,99.99
2017-07-02T06:42:15.723Z,99.99
2017-07-02T06:43:16.303Z,99.99
2017-07-02T06:44:16.885Z,99.99
2017-07-02T06:45:17.465Z,99.99
2017-07-02T06:46:18.047Z,99.99
2017-07-02T06:47:18.632Z,99.99
2017-07-02T06:48:19.228Z,99.99
2017-07-02T06:49:19.823Z,99.99
2017-07-02T06:50:20.404Z,99.99
2017-07-02T06:51:20.984Z,99.99
2017-07-02T06:52:21.581Z,99.99
2017-07-02T06:53:22.164Z,99.99
2017-07-02T06:54:22.748Z,99.99
2017-07-02T06:55:23.362Z,99.99
2017-07-02T06:56:23.907Z,99.99
2017-07-02T06:57:24.488Z,99.99
2017-07-02T06:58:25.073Z,99.99
2017-07-02T06:59:25.652Z,99.99
2017-07-02T07:00:26.232Z,99.99
2017-07-02T07:01:26.813Z,99.99
2017-07-02T07:02:27.395Z,99.99
2017-07-02T07:03:27.992Z,99.99
2017-07-02T07:04:28.573Z,99.99
2017-07-02T07:05:29.154Z,99.99
2017-07-02T07:06:29.735Z,99.99
2017-07-02T07:07:30.316Z,99.99
2017-07-02T07:08:30.896Z,99.99
2017-07-02T07:09:31.479Z,99.99
2017-07-02T07:10:32.058Z,99.99
2017-07-02T07:11:32.642Z,99.99
2017-07-02T07:12:33.222Z,99.99
2017-07-02T07:13:33.802Z,99.99
2017-07-02T07:14:34.383Z,99.99
2017-07-02T07:15:34.965Z,99.99
2017-07-02T07:16:35.544Z,99.99
2017-07-02T07:17:36.130Z,99.99
2017-07-02T07:18:36.705Z,99.99
2017-07-02T07:19:37.288Z,99.99
2017-07-02T07:20:37.869Z,99.99
2017-07-02T07:21:38.449Z,99.99
2017-07-02T07:22:39.033Z,99.99
2017-07-02T07:23:39.612Z,99.99
2017-07-02T07:24:40.190Z,99.99
2017-07-02T07:25:40.770Z,99.99
2017-07-02T07:26:41.351Z,99.99
2017-07-02T07:27:41.930Z,99.99
2017-07-02T07:28:42.509Z,99.99
2017-07-02T07:29:43.089Z,99.99
2017-07-02T07:30:43.670Z,99.99
2017-07-02T07:31:44.265Z,99.99
2017-07-02T07:32:44.845Z,99.99
2017-07-02T07:33:45.426Z,99.99
2017-07-02T07:34:46.022Z,99.99
2017-07-02T07:35:46.602Z,99.99
2017-07-02T07:36:47.183Z,99.99
2017-07-02T07:37:47.764Z,99.99
2017-07-02T07:38:48.345Z,99.99
2017-07-02T07:39:48.927Z,99.99
2017-07-02T07:40:49.508Z,99.99
2017-07-02T07:41:50.088Z,99.99
2017-07-02T07:42:50.671Z,99.99
2017-07-02T07:43:51.252Z,99.99
2017-07-02T07:44:51.833Z,99.99
2017-07-02T07:45:52.415Z,99.99
2017-07-02T07:46:52.997Z,99.99
2017-07-02T07:47:53.578Z,99.99
2017-07-02T07:48:54.161Z,99.99
2017-07-02T07:49:54.741Z,99.99
2017-07-02T07:50:55.323Z,99.99
2017-07-02T07:51:55.904Z,99.99
2017-07-02T07:52:56.485Z,99.99
2017-07-02T07:53:57.067Z,99.99
2017-07-02T07:54:57.660Z,99.99
2017-07-02T07:55:58.242Z,99.99
2017-07-02T07:56:58.823Z,99.99
2017-07-02T07:57:59.419Z,99.99
2017-07-02T07:59:00.000Z,99.99
2017-07-02T08:00:00.580Z,99.99
2017-07-02T08:01:01.162Z,99.99
2017-07-02T08:02:01.745Z,99.99
2017-07-02T08:03:02.324Z,99.99
2017-07-02T08:04:02.906Z,99.99
2017-07-02T08:05:03.487Z,99.99
2017-07-02T08:06:04.067Z,99.99
2017-07-02T08:07:04.650Z,99.99
2017-07-02T08:08:05.232Z,99.99
2017-07-02T08:09:05.814Z,99.99
2017-07-02T08:10:06.396Z,99.99
2017-07-02T08:11:06.979Z,99.99
2017-07-02T08:12:07.560Z,99.99
2017-07-02T08:13:08.142Z,99.99
2017-07-02T08:14:08.724Z,99.99
2017-07-02T08:15:09.305Z,99.99
2017-07-02T08:16:09.888Z,99.99
2017-07-02T08:17:10.485Z,99.99
2017-07-02T08:18:11.068Z,99.99
2017-07-02T08:19:11.650Z,99.99
2017-07-02T08:20:12.232Z,99.99
2017-07-02T08:21:12.814Z,99.99
2017-07-02T08:22:13.397Z,99.99
2017-07-02T08:23:13.978Z,99.99
2017-07-02T08:24:14.559Z,99.99
2017-07-02T08:25:15.142Z,99.99
2017-07-02T08:26:15.722Z,99.99
2017-07-02T08:27:16.305Z,99.99
2017-07-02T08:28:16.888Z,99.99
2017-07-02T08:29:17.470Z,99.99
2017-07-02T08:30:18.051Z,99.99
2017-07-02T08:31:18.636Z,99.99
2017-07-02T08:32:19.217Z,99.99
2017-07-02T08:33:19.798Z,99.99
2017-07-02T08:34:20.382Z,99.99
2017-07-02T08:35:20.962Z,99.99
2017-07-02T08:36:21.543Z,99.99
2017-07-02T08:37:22.130Z,99.99
2017-07-02T08:38:22.709Z,99.99
2017-07-02T08:39:23.291Z,99.99
2017-07-02T08:40:23.873Z,99.99
2017-07-02T08:41:24.454Z,99.99
2017-07-02T08:42:25.036Z,99.99
2017-07-02T08:43:25.618Z,99.99
2017-07-02T08:44:26.213Z,99.99
2017-07-02T08:45:26.794Z,99.99
2017-07-02T08:46:27.377Z,99.99
2017-07-02T08:47:27.958Z,99.99
2017-07-02T08:48:28.538Z,99.99
2017-07-02T08:49:29.134Z,99.99
2017-07-02T08:50:29.714Z,99.99
2017-07-02T08:51:30.295Z,99.99
2017-07-02T08:52:30.883Z,99.99
2017-07-02T08:53:31.471Z,99.99
2017-07-02T08:54:32.054Z,99.99
2017-07-02T08:55:32.635Z,99.99
2017-07-02T08:56:33.216Z,99.99
2017-07-02T08:57:33.815Z,99.99
2017-07-02T08:58:34.399Z,99.99
2017-07-02T08:59:34.977Z,99.99
2017-07-02T09:00:35.559Z,99.99
2017-07-02T09:01:36.140Z,99.99
2017-07-02T09:02:36.721Z,99.99
2017-07-02T09:03:37.302Z,99.99
2017-07-02T09:04:37.899Z,99.99
2017-07-02T09:05:38.496Z,99.99
2017-07-02T09:06:39.079Z,99.99
2017-07-02T09:07:39.659Z,99.99
2017-07-02T09:08:40.240Z,99.99
2017-07-02T09:09:40.824Z,99.99
2017-07-02T09:10:41.403Z,99.99
2017-07-02T09:11:41.986Z,99.99
2017-07-02T09:12:42.570Z,99.99
2017-07-02T09:13:43.150Z,99.99
2017-07-02T09:14:43.730Z,99.99
2017-07-02T09:15:44.312Z,99.99
2017-07-02T09:16:44.896Z,99.99
2017-07-02T09:17:45.474Z,99.99
2017-07-02T09:18:46.058Z,99.99
2017-07-02T09:19:46.655Z,99.99
2017-07-02T09:20:47.236Z,99.99
2017-07-02T09:21:47.819Z,99.99
2017-07-02T09:22:48.415Z,99.99
2017-07-02T09:23:48.997Z,99.99
2017-07-02T09:24:49.581Z,99.99
2017-07-02T09:25:50.175Z,99.99
2017-07-02T09:26:50.757Z,99.99
2017-07-02T09:27:51.354Z,99.99
2017-07-02T09:28:51.938Z,99.99
2017-07-02T09:29:52.534Z,99.99
2017-07-02T09:30:53.115Z,99.99
2017-07-02T09:31:53.697Z,99.99
2017-07-02T09:32:54.279Z,99.99
2017-07-02T09:33:54.860Z,99.99
2017-07-02T09:34:55.442Z,99.99
2017-07-02T09:35:56.025Z,99.99
2017-07-02T09:36:56.606Z,99.99
2017-07-02T09:37:57.188Z,99.99
2017-07-02T09:38:57.771Z,99.99
2017-07-02T09:39:58.351Z,99.99
2017-07-02T09:40:58.934Z,99.99
2017-07-02T09:41:59.518Z,99.99
2017-07-02T09:43:00.100Z,99.99
2017-07-02T09:44:00.700Z,99.99
2017-07-02T09:45:01.281Z,99.99
2017-07-02T09:46:01.862Z,99.99
2017-07-02T09:47:02.445Z,99.99
2017-07-02T09:48:03.028Z,99.99
2017-07-02T09:49:03.614Z,99.99
2017-07-02T09:50:04.195Z,99.99
2017-07-02T09:51:04.773Z,99.99
2017-07-02T09:52:05.354Z,99.99
2017-07-02T09:53:05.937Z,99.99
2017-07-02T09:54:06.518Z,99.99
2017-07-02T09:55:07.101Z,99.99
2017-07-02T09:56:07.696Z,99.99
2017-07-02T09:57:08.279Z,99.99
2017-07-02T09:58:08.860Z,99.99
2017-07-02T09:59:09.442Z,99.99
2017-07-02T10:00:10.026Z,99.99
2017-07-02T10:01:10.607Z,99.99
2017-07-02T10:02:11.189Z,99.99
2017-07-02T10:03:11.773Z,99.99
2017-07-02T10:04:12.353Z,99.99
2017-07-02T10:05:12.935Z,99.99
2017-07-02T10:06:13.533Z,99.99
2017-07-02T10:07:14.115Z,99.99
2017-07-02T10:08:14.697Z,99.99
2017-07-02T10:09:15.280Z,99.99
2017-07-02T10:10:15.863Z,99.99
2017-07-02T10:11:16.446Z,99.99
2017-07-02T10:12:17.027Z,99.99
2017-07-02T10:13:17.610Z,99.99
2017-07-02T10:14:18.191Z,99.99
2017-07-02T10:15:18.774Z,99.99
2017-07-02T10:16:19.358Z,99.99
2017-07-02T10:17:19.940Z,99.99
2017-07-02T10:18:20.521Z,99.99
2017-07-02T10:19:21.105Z,99.99
2017-07-02T10:20:21.687Z,99.99
2017-07-02T10:21:22.270Z,99.99
2017-07-02T10:22:22.854Z,99.99
2017-07-02T10:23:23.435Z,99.99
2017-07-02T10:24:24.017Z,99.99
2017-07-02T10:25:24.600Z,99.99
2017-07-02T10:26:25.182Z,99.99
2017-07-02T10:27:25.764Z,99.99
2017-07-02T10:28:26.361Z,99.99
2017-07-02T10:29:26.944Z,99.99
2017-07-02T10:30:27.525Z,99.99
2017-07-02T10:31:28.108Z,99.99
2017-07-02T10:32:28.691Z,99.99
2017-07-02T10:33:29.273Z,99.99
2017-07-02T10:34:29.854Z,99.99
2017-07-02T10:35:30.438Z,99.99
2017-07-02T10:36:31.019Z,99.99
2017-07-02T10:37:31.600Z,99.99
2017-07-02T10:38:32.184Z,99.99
2017-07-02T10:39:32.781Z,99.99
2017-07-02T10:40:33.363Z,99.99
2017-07-02T10:41:33.961Z,99.99
2017-07-02T10:42:34.543Z,99.99
2017-07-02T10:43:35.126Z,99.99
2017-07-02T10:44:35.708Z,99.99
2017-07-02T10:45:36.290Z,99.99
2017-07-02T10:46:36.874Z,99.99
2017-07-02T10:47:37.454Z,99.99
2017-07-02T10:48:38.036Z,99.99
2017-07-02T10:49:38.633Z,99.99
2017-07-02T10:50:39.217Z,99.99
2017-07-02T10:51:39.798Z,99.99
2017-07-02T10:52:40.380Z,99.99
2017-07-02T10:53:40.964Z,99.99
2017-07-02T10:54:41.544Z,99.99
2017-07-02T10:55:42.125Z,99.99
2017-07-02T10:56:42.723Z,99.99
2017-07-02T10:57:43.306Z,99.99
2017-07-02T10:58:43.888Z,99.99
2017-07-02T10:59:44.469Z,99.99
2017-07-02T11:00:45.066Z,99.99
2017-07-02T11:01:45.649Z,99.99
2017-07-02T11:02:46.231Z,99.99
2017-07-02T11:03:46.813Z,99.99
2017-07-02T11:04:47.395Z,99.99
2017-07-02T11:05:47.978Z,99.99
2017-07-02T11:06:48.559Z,99.99
2017-07-02T11:07:49.142Z,99.99
2017-07-02T11:08:49.724Z,99.99
2017-07-02T11:09:50.306Z,99.99
2017-07-02T11:10:50.889Z,99.99
2017-07-02T11:11:51.470Z,99.99
2017-07-02T11:12:52.051Z,99.99
2017-07-02T11:13:52.635Z,99.99
2017-07-02T11:14:53.216Z,99.99
2017-07-02T11:15:53.815Z,99.99
2017-07-02T11:16:54.395Z,99.99
2017-07-02T11:17:54.978Z,99.99
2017-07-02T11:18:55.562Z,99.99
2017-07-02T11:19:56.143Z,99.99
2017-07-02T11:20:56.726Z,99.99
2017-07-02T11:21:57.307Z,99.99
2017-07-02T11:22:57.887Z,99.99
2017-07-02T11:23:58.470Z,99.99
2017-07-02T11:24:59.052Z,99.99
2017-07-02T11:25:59.633Z,99.99
2017-07-02T11:27:00.216Z,99.99
2017-07-02T11:28:00.798Z,99.99
2017-07-02T11:29:01.377Z,99.99
2017-07-02T11:30:01.960Z,99.99
2017-07-02T11:31:02.540Z,99.99
2017-07-02T11:32:03.124Z,99.99
2017-07-02T11:33:03.705Z,99.99
2017-07-02T11:34:04.286Z,99.99
2017-07-02T11:35:04.869Z,99.99
2017-07-02T11:36:05.452Z,99.99
2017-07-02T11:37:06.034Z,99.99
2017-07-02T11:38:06.614Z,99.99
2017-07-02T11:39:07.198Z,99.99
2017-07-02T11:40:07.780Z,99.99
2017-07-02T11:41:08.363Z,99.99
2017-07-02T11:42:08.948Z,99.99
2017-07-02T11:43:09.530Z,99.99
2017-07-02T11:44:10.112Z,99.99
2017-07-02T11:45:10.697Z,99.99
2017-07-02T11:46:11.280Z,99.99
2017-07-02T11:47:11.861Z,99.99
2017-07-02T11:48:12.445Z,99.99
2017-07-02T11:49:13.028Z,99.99
2017-07-02T11:50:13.611Z,99.68
2017-07-02T11:51:14.196Z,99.99
2017-07-02T11:52:14.779Z,99.63
2017-07-02T11:53:15.363Z,97.86
2017-07-02T11:54:15.947Z,98.05
2017-07-02T11:55:16.534Z,98.14
2017-07-02T11:56:17.116Z,98.34
2017-07-02T11:57:17.718Z,98.24
2017-07-02T11:58:18.300Z,97.86
2017-07-02T11:59:18.900Z,98.19
2017-07-02T12:00:19.484Z,96.27
2017-07-02T12:01:20.066Z,96.94
2017-07-02T12:02:20.649Z,95.98
2017-07-02T12:03:21.233Z,96.27
2017-07-02T12:04:21.817Z,96.70
2017-07-02T12:05:22.400Z,94.49
2017-07-02T12:06:22.983Z,95.65
2017-07-02T12:07:23.569Z,95.07
2017-07-02T12:08:24.151Z,93.19
2017-07-02T12:09:24.733Z,90.94
2017-07-02T12:10:25.319Z,90.55
2017-07-02T12:11:25.902Z,92.19
2017-07-02T12:12:26.489Z,91.71
2017-07-02T12:13:27.071Z,91.85
2017-07-02T12:14:27.655Z,91.03
2017-07-02T12:15:28.239Z,89.35
2017-07-02T12:16:28.822Z,88.96
2017-07-02T12:17:29.406Z,88.39
2017-07-02T12:18:29.991Z,88.77
2017-07-02T12:19:30.575Z,88.57
2017-07-02T12:20:31.159Z,90.12
2017-07-02T12:21:31.759Z,88.48
2017-07-02T12:22:32.358Z,87.71
2017-07-02T12:23:32.940Z,87.23
2017-07-02T12:24:33.522Z,87.33
2017-07-02T12:25:34.106Z,87.08
2017-07-02T12:26:34.690Z,85.60
2017-07-02T12:27:35.274Z,86.46
2017-07-02T12:28:35.860Z,86.75
2017-07-02T12:29:36.442Z,86.56
2017-07-02T12:30:37.026Z,86.75
2017-07-02T12:31:37.612Z,86.27
2017-07-02T12:32:38.195Z,86.27
2017-07-02T12:33:38.779Z,85.64
2017-07-02T12:34:39.366Z,85.64
2017-07-02T12:35:39.964Z,85.39
2017-07-02T12:36:40.549Z,84.81
2017-07-02T12:37:41.134Z,84.53
2017-07-02T12:38:41.719Z,87.26
2017-07-02T12:39:42.302Z,84.87
2017-07-02T12:40:42.887Z,84.83
2017-07-02T12:41:43.472Z,85.35
2017-07-02T12:42:44.058Z,85.35
2017-07-02T12:43:44.642Z,85.64
2017-07-02T12:44:45.227Z,85.06
2017-07-02T12:45:45.825Z,85.25
2017-07-02T12:46:46.410Z,85.49
2017-07-02T12:47:46.994Z,84.76
2017-07-02T12:48:47.578Z,83.22
2017-07-02T12:49:48.162Z,81.88
2017-07-02T12:50:48.745Z,83.33
2017-07-02T12:51:49.342Z,82.60
2017-07-02T12:52:49.926Z,81.73
2017-07-02T12:53:50.516Z,81.21
2017-07-02T12:54:51.113Z,82.60
2017-07-02T12:55:51.699Z,82.64
2017-07-02T12:56:52.283Z,81.10
2017-07-02T12:57:52.869Z,81.77
2017-07-02T12:58:53.452Z,81.43
2017-07-02T12:59:54.037Z,80.08